Flight Track Log - Related Links

Times and Time Zones

All times are in EDT time to prevent confusion due to time zone crossing. See the SWA864 flight status page for this flight to view local times or setup timezone preferences in your user account.

Time Position Orientation Groundspeed Altitude Reporting Facility
EDT Latitude Longitude Course Direction KTS MPH feet Rate Location/Type
Sat 08:03:09 PM 33.9460 -118.4440 262° West 162 186 1,600  Level FlightAware ADS-B
Sat 08:03:41 PM 33.9400 -118.4800 259° West 211 243 2,600 1,900 Climbing FlightAware ADS-B
Sat 08:04:09 PM 33.9210 -118.5040 226° Southwest 249 287 3,500 2,250 Climbing FlightAware ADS-B
Sat 08:04:29 PM 33.9030 -118.5230 221° Southwest 263 303 4,400 3,250 Climbing FlightAware ADS-B
Sat 08:04:57 PM 33.8750 -118.5460 214° Southwest 270 311 6,100 3,600 Climbing FlightAware ADS-B
Sat 08:05:09 PM 33.8580 -118.5470 183° South 275 316 6,800 2,192 Climbing FlightAware ADS-B
Sat 08:05:49 PM 33.8070 -118.5400 173° South 286 329 8,000 1,600 Climbing FlightAware ADS-B
Sat 08:06:09 PM 33.7810 -118.5350 171° South 292 336 8,400 1,784 Climbing FlightAware ADS-B
Sat 08:06:26 PM 33.7610 -118.5320 173° South 294 338 9,100 2,769 Climbing FlightAware ADS-B
Sat 08:07:14 PM 33.6960 -118.5010 158° South 337 388 11,400 3,041 Climbing FlightAware ADS-B
Sat 08:07:39 PM 33.6790 -118.4590 116° Southeast 342 394 12,800 3,467 Climbing FlightAware ADS-B
Sat 08:07:59 PM 33.6760 -118.4210 95° East 346 398 14,000 3,171 Climbing FlightAware ADS-B
Sat 08:08:49 PM 33.6750 -118.3230 91° East 367 422 16,500 3,060 Climbing FlightAware ADS-B
Sat 08:09:39 PM 33.6740 -118.2240 91° East 374 430 19,100 2,905 Climbing FlightAware ADS-B
Sat 08:10:24 PM 33.6720 -118.1260 91° East 389 448 21,100 2,532 Climbing FlightAware ADS-B
Sat 08:11:28 PM 33.6700 -117.9870 91° East 406 467 23,700 2,387 Climbing FlightAware ADS-B
Sat 08:11:57 PM 33.6690 -117.9190 91° East 413 475 24,800 2,148 Climbing FlightAware ADS-B
Sat 08:12:49 PM 33.6670 -117.7970 91° East 424 488 26,600 1,980 Climbing FlightAware ADS-B
Sat 08:13:37 PM 33.6650 -117.6840 91° East 434 499 28,100 1,705 Climbing FlightAware ADS-B
Sat 08:14:24 PM 33.6630 -117.5720 91° East 448 516 29,300 1,468 Climbing FlightAware ADS-B
Sat 08:15:11 PM 33.6610 -117.4530 91° East 460 529 30,400 1,373 Climbing FlightAware ADS-B
Sat 08:15:47 PM 33.6590 -117.3580 91° East 467 537 31,200 1,250 Climbing FlightAware ADS-B
Sat 08:16:23 PM 33.6570 -117.2660 91° East 475 547 31,900 1,373 Climbing FlightAware ADS-B
Sat 08:17:10 PM 33.6540 -117.1400 92° East 479 551 33,100 1,313 Climbing FlightAware ADS-B
Sat 08:17:59 PM 33.6510 -117.0110 92° East 488 562 34,000 1,113 Climbing FlightAware ADS-B
Sat 08:18:47 PM 33.6450 -116.8790 93° East 494 568 34,900 1,380 Climbing FlightAware ADS-B
Sat 08:19:39 PM 33.6330 -116.7350 96° East 488 562 36,300 1,320 Climbing FlightAware ADS-B
Sat 08:20:27 PM 33.6230 -116.6060 95° East 490 564 37,100 1,129 Climbing FlightAware ADS-B
Sat 08:21:20 PM 33.6110 -116.4640 96° East 486 559 38,200 1,308 Climbing FlightAware ADS-B
Sat 08:21:45 PM 33.6050 -116.3960 96° East 481 554 38,800 623 Climbing FlightAware ADS-B
Sat 08:22:37 PM 33.5930 -116.2590 96° East 483 556 39,000 114 Climbing FlightAware ADS-B
Sat 08:23:30 PM 33.5810 -116.1210 96° East 484 557 39,000  Level FlightAware ADS-B
Sat 08:24:29 PM 33.5670 -115.9630 96° East 485 558 39,000  Level FlightAware ADS-B
Sat 08:25:06 PM 33.5590 -115.8730 96° East 487 560 39,000  Level FlightAware ADS-B
Sat 08:26:02 PM 33.5460 -115.7260 96° East 487 560 39,000  Level FlightAware ADS-B
Sat 08:26:51 PM 33.5330 -115.5940 97° East 39,000  Level FlightAware ADS-B
Sat 08:27:36 PM 33.5220 -115.4680 96° East 491 565 39,000  Level FlightAware ADS-B
Sat 08:28:32 PM 33.5070 -115.3150 97° East 491 565 39,000  Level FlightAware ADS-B
Sat 08:29:26 PM 33.4940 -115.1740 96° East 493 567 39,000  Level FlightAware ADS-B
Sat 08:30:17 PM 33.4850 -115.0560 95° East 493 567 39,000  Level FlightAware ADS-B
Sat 08:31:25 PM 33.4650 -114.8740 97° East 497 572 39,000  Level FlightAware ADS-B
Sat 08:32:03 PM 33.4550 -114.7720 97° East 499 574 39,000  Level FlightAware ADS-B
Sat 08:32:19 PM 33.4480 -114.7070 97° East 500 575 39,000  Level FlightAware ADS-B
Sat 08:33:27 PM 33.4300 -114.5270 97° East 500 575 39,000  Level FlightAware ADS-B
Sat 08:34:09 PM 33.4190 -114.4180 97° East 501 577 39,000  Level FlightAware ADS-B
Sat 08:34:59 PM 33.4020 -114.2480 97° East 501 577 39,000  Level FlightAware ADS-B
Sat 08:35:44 PM 33.3890 -114.1240 97° East 500 575 39,000  Level FlightAware ADS-B
Sat 08:36:28 PM 33.3760 -114.0030 97° East 498 573 39,000  Level FlightAware ADS-B
Sat 08:37:28 PM 33.3590 -113.8410 97° East 498 573 39,000  Level FlightAware ADS-B
Sat 08:37:57 PM 33.3510 -113.7630 97° East 498 573 39,000  Level FlightAware ADS-B
Sat 08:38:58 PM 33.3320 -113.5940 98° East 500 575 39,000  Level FlightAware ADS-B
Sat 08:39:39 PM 33.3220 -113.5050 98° East 500 575 39,000  Level FlightAware ADS-B
Sat 08:40:25 PM 33.3090 -113.3780 97° East 501 577 39,000  Level FlightAware ADS-B
Sat 08:41:13 PM 33.2950 -113.2520 98° East 502 578 39,000  Level FlightAware ADS-B
Sat 08:41:55 PM 33.2820 -113.1350 98° East 503 579 39,000  Level FlightAware ADS-B
Sat 08:42:28 PM 33.2710 -113.0410 98° East 503 579 39,000  Level FlightAware ADS-B
Sat 08:43:19 PM 33.2550 -112.9030 98° East 505 581 39,000  Level FlightAware ADS-B
Sat 08:43:40 PM 33.2490 -112.8470 97° East 505 581 39,000  Level FlightAware ADS-B
Sat 08:44:35 PM 33.2290 -112.6740 98° East 506 582 39,000  Level FlightAware ADS-B
Sat 08:45:23 PM 33.2130 -112.5400 98° East 505 581 39,000  Level FlightAware ADS-B
Sat 08:45:47 PM 33.2050 -112.4720 98° East 506 582 39,000  Level FlightAware ADS-B
Sat 08:46:43 PM 33.1870 -112.3160 98° East 506 582 39,000  Level FlightAware ADS-B
Sat 08:47:39 PM 33.1680 -112.1610 98° East 507 583 39,000  Level FlightAware ADS-B
Sat 08:48:27 PM 33.1520 -112.0280 98° East 505 581 39,000  Level FlightAware ADS-B
Sat 08:49:15 PM 33.1360 -111.8950 98° East 505 581 39,000  Level FlightAware ADS-B
Sat 08:50:06 PM 33.1190 -111.7630 99° East 508 585 39,000  Level FlightAware ADS-B
Sat 08:51:01 PM 33.1000 -111.6060 98° East 511 588 39,000  Level FlightAware ADS-B
Sat 08:51:49 PM 33.0830 -111.4740 99° East 511 588 39,000  Level FlightAware ADS-B
Sat 08:52:41 PM 33.0640 -111.3250 99° East 510 587 39,000  Level FlightAware ADS-B
Sat 08:53:35 PM 33.0450 -111.1790 99° East 510 587 39,000  Level FlightAware ADS-B
Sat 08:54:13 PM 33.0310 -111.0700 99° East 507 583 39,000  Level FlightAware ADS-B
Sat 08:54:47 PM 33.0190 -110.9760 99° East 505 581 39,000  Level FlightAware ADS-B
Sat 08:55:31 PM 33.0030 -110.8550 99° East 503 579 39,000  Level FlightAware ADS-B
Sat 08:56:27 PM 32.9830 -110.7020 99° East 502 578 39,000  Level FlightAware ADS-B
Sat 08:56:51 PM 32.9740 -110.6360 99° East 503 579 39,000  Level FlightAware ADS-B
Sat 08:57:41 PM 32.9560 -110.5000 99° East 507 583 39,000  Level FlightAware ADS-B
Sat 08:58:25 PM 32.9400 -110.3800 99° East 507 583 39,000  Level FlightAware ADS-B
Sat 08:59:05 PM 32.9250 -110.2680 99° East 507 583 39,000  Level FlightAware ADS-B
Sat 08:59:45 PM 32.9090 -110.1580 100° East 508 585 39,000  Level FlightAware ADS-B
Sat 09:00:31 PM 32.8920 -110.0330 99° East 505 581 39,000  Level FlightAware ADS-B
Sat 09:01:15 PM 32.8760 -109.9120 99° East 508 585 39,000  Level FlightAware ADS-B
Sat 09:01:39 PM 32.8660 -109.8450 100° East 509 586 39,000  Level FlightAware ADS-B
Sat 09:02:39 PM 32.8430 -109.6790 99° East 511 588 39,000  Level FlightAware ADS-B
Sat 09:03:37 PM 32.8200 -109.5210 100° East 512 589 39,000  Level FlightAware ADS-B
Sat 09:04:29 PM 32.8000 -109.3760 99° East 511 588 39,000  Level FlightAware ADS-B
Sat 09:05:09 PM 32.7830 -109.2640 100° East 511 588 39,000  Level FlightAware ADS-B
Sat 09:05:37 PM 32.7720 -109.1870 100° East 513 590 39,000  Level FlightAware ADS-B
Sat 09:06:37 PM 32.7480 -109.0230 100° East 514 592 39,000  Level FlightAware ADS-B
Sat 09:07:27 PM 32.7270 -108.8820 100° East 513 590 39,000  Level FlightAware ADS-B
Sat 09:08:19 PM 32.7060 -108.7390 100° East 513 590 39,000  Level FlightAware ADS-B
Sat 09:09:13 PM 32.6840 -108.5900 100° East 513 590 39,000  Level FlightAware ADS-B
Sat 09:10:15 PM 32.6580 -108.4170 100° East 514 592 39,000  Level FlightAware ADS-B
Sat 09:10:47 PM 32.6440 -108.3300 101° East 513 590 39,000  Level FlightAware ADS-B
Sat 09:11:44 PM 32.6210 -108.1760 100° East 510 587 39,000  Level FlightAware ADS-B
Sat 09:12:37 PM 32.6010 -108.0440 100° East 509 586 39,000  Level FlightAware ADS-B
Sat 09:13:13 PM 32.5880 -107.9600 100° East 509 586 39,000  Level FlightAware ADS-B
Sat 09:13:49 PM 32.5760 -107.8750 99° East 509 586 39,000  Level FlightAware ADS-B
Sat 09:14:13 PM 32.5670 -107.8190 101° East 509 586 39,000  Level FlightAware ADS-B
Sat 09:14:49 PM 32.5550 -107.7350 100° East 509 586 39,000  Level FlightAware ADS-B
Sat 09:15:37 PM 32.5380 -107.6230 100° East 509 586 39,000  Level FlightAware ADS-B
Sat 09:16:58 PM 32.4840 -107.3070 101° East 518 596 39,000  Level FlightAware ADS-B
Sat 09:17:38 PM 32.4660 -107.1980 101° East 516 594 39,000  Level FlightAware ADS-B
Sat 09:18:48 PM 32.4340 -107.0010 101° East 517 595 39,000  Level FlightAware ADS-B
Sat 09:19:24 PM 32.4180 -106.9040 101° East 518 596 39,000  Level FlightAware ADS-B
Sat 09:19:53 PM 32.4040 -106.8200 101° East 519 597 39,000  Level FlightAware ADS-B
Sat 09:20:53 PM 32.3770 -106.6580 101° East 521 600 39,000  Level FlightAware ADS-B
Sat 09:21:48 PM 32.3510 -106.5020 101° East 524 603 39,000  Level FlightAware ADS-B
Sat 09:22:43 PM 32.3250 -106.3470 101° East 524 603 39,000  Level FlightAware ADS-B
Sat 09:23:08 PM 32.3130 -106.2780 102° East 525 604 39,000  Level FlightAware ADS-B
Sat 09:24:03 PM 32.2870 -106.1250 101° East 526 605 39,000  Level FlightAware ADS-B
Sat 09:24:43 PM 32.2690 -106.0170 101° East 527 606 39,000  Level FlightAware ADS-B
Sat 09:25:23 PM 32.2500 -105.9110 102° East 529 609 39,000  Level FlightAware ADS-B
Sat 09:26:37 PM 32.2210 -105.7320 101° East 529 609 39,000  Level FlightAware ADS-B
Sat 09:27:25 PM 32.2020 -105.6170 101° East 529 609 39,000  Level FlightAware ADS-B
Sat 09:28:14 PM 32.1820 -105.4980 101° East 529 609 39,000  Level FlightAware ADS-B
Sat 09:28:50 PM 32.1680 -105.4110 101° East 529 609 39,000  Level FlightAware ADS-B
Sat 09:29:39 PM 32.1480 -105.2930 101° East 529 609 39,000  Level FlightAware ADS-B
Sat 09:30:39 PM 32.1250 -105.1490 101° East 529 609 39,000  Level FlightAware ADS-B
Sat 09:31:27 PM 32.1050 -105.0330 101° East 529 609 39,000  Level FlightAware ADS-B
Sat 09:31:51 PM 32.0960 -104.9750 100° East 529 609 39,000  Level FlightAware ADS-B
Sat 09:32:40 PM 32.0760 -104.8570 101° East 529 609 39,000  Level FlightAware ADS-B
Sat 09:33:40 PM 32.0530 -104.7120 101° East 529 609 39,000  Level FlightAware ADS-B
Sat 09:34:40 PM 32.0290 -104.5680 101° East 529 609 39,000  Level FlightAware ADS-B
Sat 09:35:16 PM 32.0140 -104.4810 101° East 529 609 39,000  Level FlightAware ADS-B
Sat 09:39:22 PM 31.8180 -103.5530 104° East 520 598 39,000  Level FlightAware ADS-B
Sat 09:40:05 PM 31.8000 -103.4550 102° East 520 598 39,000  Level FlightAware ADS-B
Sat 09:40:20 PM 31.7870 -103.3960 105° East 521 600 39,000  Level FlightAware ADS-B
Sat 09:41:21 PM 31.7610 -103.2520 102° East 521 600 39,000  Level FlightAware ADS-B
Sat 09:41:49 PM 31.7380 -103.1480 105° East 521 600 39,000  Level FlightAware ADS-B
Sat 09:42:33 PM 31.7150 -103.0280 103° East 521 600 39,000  Level FlightAware ADS-B
Sat 09:43:21 PM 31.6880 -102.8950 103° East 523 602 39,000  Level FlightAware ADS-B
Sat 09:44:18 PM 31.6570 -102.7400 103° East 523 602 39,000  Level FlightAware ADS-B
Sat 09:45:01 PM 31.6330 -102.6190 103° East 524 603 39,000  Level FlightAware ADS-B
Sat 09:45:53 PM 31.6040 -102.4730 103° East 525 604 39,000  Level FlightAware ADS-B
Sat 09:46:38 PM 31.5780 -102.3500 104° East 525 604 39,000  Level FlightAware ADS-B
Sat 09:47:35 PM 31.5460 -102.1920 103° East 524 603 39,000  Level FlightAware ADS-B
Sat 09:48:20 PM 31.5200 -102.0680 104° East 523 602 39,000  Level FlightAware ADS-B
Sat 09:49:08 PM 31.4940 -101.9380 103° East 522 601 39,000  Level FlightAware ADS-B
Sat 09:49:48 PM 31.4710 -101.8280 104° East 521 600 39,000  Level FlightAware ADS-B
Sat 09:50:36 PM 31.4440 -101.7010 104° East 520 598 39,000  Level FlightAware ADS-B
Sat 09:51:09 PM 31.4240 -101.6050 104° East 520 598 39,000  Level FlightAware ADS-B
Sat 09:51:57 PM 31.3960 -101.4740 104° East 520 598 39,000  Level FlightAware ADS-B
Sat 09:52:23 PM 31.3810 -101.4030 104° East 520 598 39,000  Level FlightAware ADS-B
Sat 09:53:00 PM 31.3600 -101.3010 104° East 519 597 39,000  Level FlightAware ADS-B
Sat 09:53:33 PM 31.3410 -101.2140 104° East 518 596 39,000  Level FlightAware ADS-B
Sat 09:54:21 PM 31.3140 -101.0850 104° East 517 595 39,000  Level FlightAware ADS-B
Sat 09:55:01 PM 31.2900 -100.9740 104° East 515 593 39,000  Level FlightAware ADS-B
Sat 09:55:53 PM 31.2590 -100.8330 104° East 515 593 39,000  Level FlightAware ADS-B
Sat 09:56:30 PM 31.2370 -100.7340 105° East 515 593 39,000  Level FlightAware ADS-B
Sat 09:57:26 PM 31.2050 -100.5860 104° East 517 595 39,000  Level FlightAware ADS-B
Sat 09:58:14 PM 31.1760 -100.4560 105° East 518 596 39,000  Level FlightAware ADS-B
Sat 09:59:03 PM 31.1470 -100.3220 104° East 519 597 39,000  Level FlightAware ADS-B
Sat 10:00:01 PM 31.1120 -100.1650 105° East 520 598 39,000  Level FlightAware ADS-B
Sat 10:00:45 PM 31.0850 -100.0460 105° East 519 597 39,000  Level FlightAware ADS-B
Sat 10:01:36 PM 31.0540 -99.9070 105° East 520 598 39,000  Level FlightAware ADS-B
Sat 10:02:25 PM 31.0240 -99.7760 105° East 520 598 39,000  Level FlightAware ADS-B
Sat 10:03:18 PM 31.0010 -99.6290 100° East 520 598 39,000  Level FlightAware ADS-B
Sat 10:04:08 PM 30.9830 -99.4900 99° East 519 597 39,000  Level FlightAware ADS-B
Sat 10:05:00 PM 30.9640 -99.3480 99° East 518 596 39,000  Level FlightAware ADS-B
Sat 10:05:52 PM 30.9450 -99.2040 99° East 519 597 39,000  Level FlightAware ADS-B
Sat 10:06:16 PM 30.9370 -99.1390 98° East 519 597 39,000  Level FlightAware ADS-B
Sat 10:07:06 PM 30.9180 -99.0000 99° East 518 596 39,000  Level FlightAware ADS-B
Sat 10:07:48 PM 30.9040 -98.8910 98° East 517 595 39,000  Level FlightAware ADS-B
Sat 10:08:44 PM 30.8820 -98.7320 99° East 516 594 39,000  Level FlightAware ADS-B
Sat 10:09:08 PM 30.8730 -98.6660 99° East 516 594 39,000  Level FlightAware ADS-B
Sat 10:10:09 PM 30.8510 -98.5010 99° East 514 592 39,000  Level FlightAware ADS-B
Sat 10:11:05 PM 30.8290 -98.3480 99° East 513 590 39,000  Level FlightAware ADS-B
Sat 10:11:52 PM 30.8120 -98.2230 99° East 512 589 39,000  Level FlightAware ADS-B
Sat 10:12:15 PM 30.8030 -98.1590 99° East 513 590 39,000  Level FlightAware ADS-B
Sat 10:12:55 PM 30.7880 -98.0510 99° East 512 589 39,000  Level FlightAware ADS-B
Sat 10:13:49 PM 30.7570 -97.9030 104° East 516 594 39,000 -243 Level FlightAware ADS-B
Sat 10:14:09 PM 30.7420 -97.8550 110° East 518 596 38,700 -917 Descending FlightAware ADS-B
Sat 10:15:01 PM 30.6970 -97.7150 110° East 525 604 37,900 -1,105 Descending FlightAware ADS-B
Sat 10:15:25 PM 30.6790 -97.6560 110° East 521 600 37,300 -2,455 Descending FlightAware ADS-B
Sat 10:16:07 PM 30.6430 -97.5460 111° Southeast 525 604 35,200 -3,059 Descending FlightAware ADS-B
Sat 10:17:07 PM 30.5910 -97.3830 110° East 524 603 32,100 -3,000 Descending FlightAware ADS-B
Sat 10:17:53 PM 30.5530 -97.2670 111° Southeast 519 597 29,900 -2,848 Descending FlightAware ADS-B
Sat 10:18:46 PM 30.5090 -97.1280 110° East 502 578 27,400 -2,654 Descending FlightAware ADS-B
Sat 10:19:37 PM 30.4680 -97.0010 111° Southeast 482 555 25,300 -2,500 Descending FlightAware ADS-B
Sat 10:20:34 PM 30.4240 -96.8670 111° Southeast 458 527 22,900 -2,400 Descending FlightAware ADS-B
Sat 10:21:17 PM 30.3920 -96.7700 111° Southeast 439 505 21,300 -2,258 Descending FlightAware ADS-B
Sat 10:22:07 PM 30.3560 -96.6620 111° Southeast 419 482 19,400 -2,204 Descending FlightAware ADS-B
Sat 10:22:55 PM 30.3240 -96.5640 111° Southeast 404 465 17,700 -2,313 Descending FlightAware ADS-B
Sat 10:23:43 PM 30.2920 -96.4660 111° Southeast 396 456 15,700 -2,452 Descending FlightAware ADS-B
Sat 10:24:28 PM 30.2640 -96.3800 111° Southeast 387 445 13,900 -2,225 Descending FlightAware ADS-B
Sat 10:25:12 PM 30.2360 -96.2980 112° Southeast 371 427 12,400 -2,044 Descending FlightAware ADS-B
Sat 10:25:59 PM 30.2040 -96.2140 114° Southeast 354 407 10,800 -1,417 Descending FlightAware ADS-B
Sat 10:26:24 PM 30.1740 -96.1890 144° Southeast 341 392 10,700  Descending FlightAware ADS-B
Sat 10:27:00 PM 30.1210 -96.1610 155° Southeast 335 386 10,800 63 Climbing FlightAware ADS-B
Sat 10:28:00 PM 30.0340 -96.1140 155° Southeast 337 388 10,800  Level FlightAware ADS-B
Sat 10:28:48 PM 29.9670 -96.0790 156° South 337 388 10,800 -125 Level FlightAware ADS-B
Sat 10:29:36 PM 29.8990 -96.0440 156° South 338 389 10,600 -448 Descending FlightAware ADS-B
Sat 10:29:55 PM 29.8740 -96.0260 148° Southeast 324 373 10,300 -1,077 Descending FlightAware ADS-B
Sat 10:30:15 PM 29.8540 -96.0010 133° Southeast 311 358 9,900 -1,135 Descending FlightAware ADS-B
Sat 10:30:32 PM 29.8390 -95.9800 129° Southeast 306 352 9,600 -1,043 Descending FlightAware ADS-B
Sat 10:31:01 PM 29.8130 -95.9440 130° Southeast 299 344 9,100 -1,179 Descending FlightAware ADS-B
Sat 10:31:28 PM 29.7880 -95.9100 130° Southeast 293 337 8,500 -1,143 Descending FlightAware ADS-B
Sat 10:32:04 PM 29.7580 -95.8690 130° Southeast 288 331 7,900 -738 Descending FlightAware ADS-B
Sat 10:32:33 PM 29.7330 -95.8350 130° Southeast 284 327 7,700 -100 Descending FlightAware ADS-B
Sat 10:33:04 PM 29.7060 -95.7990 131° Southeast 282 325 7,800  Climbing FlightAware ADS-B
Sat 10:33:28 PM 29.6860 -95.7710 129° Southeast 281 323 7,700 -698 Descending FlightAware ADS-B
Sat 10:33:47 PM 29.6700 -95.7490 130° Southeast 281 323 7,300 -1,263 Descending FlightAware ADS-B
Sat 10:34:06 PM 29.6540 -95.7280 131° Southeast 278 320 6,900 -1,317 Descending FlightAware ADS-B
Sat 10:34:28 PM 29.6360 -95.7030 130° Southeast 274 315 6,400 -1,304 Descending FlightAware ADS-B
Sat 10:34:52 PM 29.6170 -95.6770 130° Southeast 271 312 5,900 -1,158 Descending FlightAware ADS-B
Sat 10:35:25 PM 29.5910 -95.6420 131° Southeast 261 300 5,300 -885 Descending FlightAware ADS-B
Sat 10:35:53 PM 29.5690 -95.6130 131° Southeast 240 276 5,000 -720 Descending FlightAware ADS-B
Sat 10:36:15 PM 29.5540 -95.5920 129° Southeast 225 259 4,700 -840 Descending FlightAware ADS-B
Sat 10:36:43 PM 29.5350 -95.5670 131° Southeast 216 249 4,300 -915 Descending FlightAware ADS-B
Sat 10:37:14 PM 29.5160 -95.5400 129° Southeast 219 252 3,800 -952 Descending FlightAware ADS-B
Sat 10:37:46 PM 29.4950 -95.5120 131° Southeast 205 236 3,300 -1,017 Descending FlightAware ADS-B
Sat 10:38:13 PM 29.4860 -95.4860 112° Southeast 190 219 2,800 -735 Descending FlightAware ADS-B
Sat 10:38:35 PM 29.4880 -95.4640 84° East 180 207 2,700 -125 Descending FlightAware ADS-B
Sat 10:39:01 PM 29.4990 -95.4440 58° Northeast 176 203 2,700 -261 Level FlightAware ADS-B
Sat 10:39:21 PM 29.5100 -95.4310 46° Northeast 176 203 2,500 -522 Descending FlightAware ADS-B
Sat 10:39:47 PM 29.5250 -95.4130 46° Northeast 174 200 2,300 -490 Descending FlightAware ADS-B
Sat 10:40:10 PM 29.5370 -95.3970 49° Northeast 176 203 2,100 -556 Descending FlightAware ADS-B
Sat 10:40:41 PM 29.5540 -95.3780 44° Northeast 159 183 1,800 -383 Descending FlightAware ADS-B
Sat 10:40:57 PM 29.5630 -95.3690 41° Northeast 159 183 1,800 -500 Level FlightAware ADS-B
Sat 10:41:29 PM 29.5790 -95.3510 44° Northeast 144 166 1,400 -750 Descending FlightAware ADS-B
Sat 10:41:53 PM 29.5900 -95.3400 41° Northeast 124 143 1,100 -700 Descending FlightAware ADS-B
Sat 10:42:29 PM 29.6050 -95.3230 45° Northeast 122 140 700 -600 Descending FlightAware ADS-B
Sat 10:42:53 PM 29.6150 -95.3120 44° Northeast 120 138 500 -588 Descending FlightAware ADS-B
Sat 10:43:20 PM 29.6250 -95.3010 44° Northeast 128 147 200 -667 Descending FlightAware ADS-B
Sat 10:43:48 PM 29.6370 -95.2870 45° Northeast 134 154 -429 Descending FlightAware ADS-B
Sat 10:44:16 PM 29.6480 -95.2760 41° Northeast 134 154  Level FlightAware ADS-B

Login

Don't have an account? Register now (free) for customized features, flight alerts, and more!